Time;durP1;ratioP1;P1;durP2;ratioP2;P2;SDS_P1;SDS_P2;PMS_P1;PMS_P2;Temp;Humidity;BMP_temperature;BMP_pressure;BME280_temperature;BME280_humidity;BME280_pressure;Samples;Min_cycle;Max_cycle;Signal;HPM_P1;HPM_P2
2024/04/02 00:01:09;;;;;;;15.48;6.97;;;15.80;79.20;;;;;;4972523;28;20041;-68
2024/04/02 00:03:36;;;;;;;12.52;6.43;;;15.80;79.50;;;;;;4981567;28;20042;-69
2024/04/02 00:06:03;;;;;;;13.50;7.05;;;15.50;80.50;;;;;;4976401;28;20041;-69
2024/04/02 00:08:31;;;;;;;15.18;6.78;;;15.40;80.80;;;;;;4978030;28;20038;-70
2024/04/02 00:11:01;;;;;;;21.30;6.22;;;15.20;81.20;;;;;;4974587;28;20376;-69
2024/04/02 00:13:28;;;;;;;17.13;7.18;;;15.40;80.80;;;;;;4974262;28;20030;-71
2024/04/02 00:15:55;;;;;;;14.85;6.80;;;15.50;80.00;;;;;;4983906;28;20709;-70
2024/04/02 00:18:21;;;;;;;23.55;6.55;;;15.70;79.60;;;;;;4986670;28;20043;-69
2024/04/02 00:20:47;;;;;;;23.33;6.47;;;15.80;79.60;;;;;;4980187;28;20079;-70
2024/04/02 00:23:14;;;;;;;16.52;6.45;;;15.80;79.40;;;;;;4975726;28;20046;-69
2024/04/02 00:25:42;;;;;;;19.33;6.10;;;16.00;78.80;;;;;;4973883;28;20049;-69
2024/04/02 00:28:11;;;;;;;18.55;8.05;;;15.40;79.90;;;;;;4986429;28;20397;-70
2024/04/02 00:30:38;;;;;;;22.02;6.72;;;15.60;80.00;;;;;;4973916;28;20034;-66
2024/04/02 00:33:04;;;;;;;14.68;6.00;;;15.30;80.40;;;;;;4974113;28;20385;-68
2024/04/02 00:35:30;;;;;;;15.13;6.05;;;15.10;81.00;;;;;;4979400;28;20042;-70
2024/04/02 00:37:57;;;;;;;12.75;6.50;;;15.40;80.90;;;;;;4980855;28;20385;-69
2024/04/02 00:40:23;;;;;;;14.93;6.22;;;15.30;80.40;;;;;;4973977;28;20041;-70
2024/04/02 00:42:49;;;;;;;14.30;6.63;;;15.20;79.30;;;;;;4974010;28;20042;-69
2024/04/02 00:45:16;;;;;;;11.85;5.93;;;15.40;79.30;;;;;;4973674;28;20376;-69
2024/04/02 00:47:42;;;;;;;16.33;6.43;;;15.10;80.20;;;;;;4973921;28;20041;-67
2024/04/02 00:50:10;;;;;;;15.77;6.28;;;14.90;80.80;;;;;;4993020;28;20038;-68
2024/04/02 00:52:36;;;;;;;15.45;5.80;;;14.60;81.40;;;;;;4978612;28;20107;-69
2024/04/02 00:55:03;;;;;;;17.02;5.95;;;14.90;80.30;;;;;;4961993;28;20481;-70
2024/04/02 00:57:29;;;;;;;15.25;6.95;;;15.30;79.10;;;;;;4973468;28;20385;-68
2024/04/02 00:59:56;;;;;;;21.33;5.70;;;15.30;79.00;;;;;;4958135;28;20047;-69
2024/04/02 01:02:22;;;;;;;13.77;5.53;;;15.20;78.90;;;;;;4977458;28;20136;-69
2024/04/02 01:04:49;;;;;;;19.92;7.15;;;15.40;79.20;;;;;;4973535;28;20046;-70
2024/04/02 01:07:16;;;;;;;16.70;6.22;;;15.20;79.30;;;;;;4956967;28;20042;-70
2024/04/02 01:09:43;;;;;;;15.10;6.47;;;15.30;78.80;;;;;;4957401;28;20469;-69
2024/04/02 01:12:10;;;;;;;21.52;5.93;;;15.10;79.80;;;;;;4957389;28;20049;-69
2024/04/02 01:14:41;;;;;;;16.98;6.25;;;15.30;79.10;;;;;;4982103;28;20042;-69
2024/04/02 01:17:07;;;;;;;12.25;6.40;;;15.40;78.70;;;;;;4975274;28;20042;-67
2024/04/02 01:19:34;;;;;;;21.05;6.60;;;15.00;79.20;;;;;;4973709;28;20041;-68
2024/04/02 01:22:18;;;;;;;13.07;5.95;;;15.10;78.80;;;;;;4994553;28;20295;-69
2024/04/02 01:24:55;;;;;;;12.73;5.65;;;15.20;79.00;;;;;;4972673;28;20034;-69
2024/04/02 01:27:21;;;;;;;17.58;6.38;;;15.30;79.40;;;;;;4973322;28;20479;-68
2024/04/02 01:29:47;;;;;;;15.32;7.05;;;15.30;78.70;;;;;;4973595;28;20062;-68
2024/04/02 01:32:13;;;;;;;17.27;6.43;;;15.00;80.00;;;;;;4973226;28;20385;-70
2024/04/02 01:34:39;;;;;;;15.63;6.15;;;15.10;79.80;;;;;;4985124;28;20042;-67
2024/04/02 01:37:05;;;;;;;15.20;6.18;;;14.80;80.20;;;;;;4973074;28;20049;-69
2024/04/02 01:39:32;;;;;;;14.20;6.00;;;14.90;80.40;;;;;;4973259;28;20041;-68
2024/04/02 01:41:58;;;;;;;17.88;6.00;;;14.80;80.60;;;;;;4985373;28;20038;-69
2024/04/02 01:44:24;;;;;;;17.15;6.03;;;14.90;80.80;;;;;;4985590;28;20041;-69
2024/04/02 01:46:50;;;;;;;10.57;5.82;;;15.10;80.10;;;;;;4972714;28;20030;-69
2024/04/02 01:49:16;;;;;;;11.45;5.45;;;14.80;81.00;;;;;;4985376;28;20038;-69
2024/04/02 01:51:44;;;;;;;16.23;6.38;;;15.00;80.40;;;;;;4960278;28;20034;-67
2024/04/02 01:54:10;;;;;;;15.15;6.47;;;15.10;80.00;;;;;;4972432;28;20389;-68
2024/04/02 01:56:36;;;;;;;23.02;6.68;;;15.30;79.30;;;;;;4963941;28;20030;-69
2024/04/02 01:59:02;;;;;;;17.60;5.80;;;15.20;79.50;;;;;;4977771;28;20039;-69
2024/04/02 02:01:29;;;;;;;15.32;5.65;;;15.30;79.30;;;;;;4978130;28;20043;-68
2024/04/02 02:03:55;;;;;;;16.77;6.30;;;15.40;78.50;;;;;;5030427;28;20031;-71
2024/04/02 02:06:21;;;;;;;11.90;6.80;;;15.10;79.30;;;;;;4972655;28;20438;-69
2024/04/02 02:08:49;;;;;;;16.83;6.68;;;15.00;79.90;;;;;;4974167;28;20034;-66
2024/04/02 02:11:16;;;;;;;15.23;6.30;;;14.90;80.10;;;;;;4983767;28;20068;-68
2024/04/02 02:13:42;;;;;;;11.25;5.70;;;14.80;80.60;;;;;;4968109;28;20041;-68
2024/04/02 02:16:08;;;;;;;16.40;6.20;;;15.00;80.50;;;;;;4981428;28;20393;-69
2024/04/02 02:18:34;;;;;;;20.33;6.60;;;15.20;80.10;;;;;;4978415;28;20033;-66
2024/04/02 02:21:00;;;;;;;16.35;6.05;;;15.20;80.30;;;;;;4982690;28;20050;-69
2024/04/02 02:23:28;;;;;;;25.45;7.03;;;15.20;79.70;;;;;;4996589;28;20117;-69
2024/04/02 02:25:56;;;;;;;22.55;6.15;;;15.10;79.80;;;;;;4971642;28;20042;-67
2024/04/02 02:28:22;;;;;;;12.90;5.72;;;15.10;80.30;;;;;;4972355;28;20115;-69
2024/04/02 02:30:49;;;;;;;12.18;6.57;;;15.10;80.10;;;;;;4969173;28;20050;-69
2024/04/02 02:33:15;;;;;;;13.35;5.97;;;15.10;80.30;;;;;;4984863;28;20037;-68
2024/04/02 02:35:41;;;;;;;14.25;5.57;;;15.00;80.40;;;;;;4972244;28;20042;-69
2024/04/02 02:38:08;;;;;;;14.27;5.38;;;14.90;81.00;;;;;;4971385;28;20100;-68
2024/04/02 02:40:34;;;;;;;14.10;5.63;;;15.00;80.70;;;;;;4972401;28;20060;-65
2024/04/02 02:43:00;;;;;;;11.93;5.20;;;15.00;80.50;;;;;;4967961;28;20549;-68
2024/04/02 02:45:26;;;;;;;17.55;5.88;;;15.00;80.80;;;;;;4972272;28;20038;-69
2024/04/02 02:47:53;;;;;;;14.75;6.43;;;14.90;81.30;;;;;;4971231;28;20043;-69
2024/04/02 02:50:19;;;;;;;18.00;6.15;;;14.90;81.20;;;;;;4971885;28;20095;-69
2024/04/02 02:52:45;;;;;;;10.38;5.00;;;15.00;81.20;;;;;;4971506;28;20046;-69
2024/04/02 02:55:12;;;;;;;17.00;5.43;;;15.10;80.30;;;;;;4971765;28;20381;-68
2024/04/02 02:57:38;;;;;;;17.88;6.78;;;15.10;80.00;;;;;;4972073;28;20367;-69
2024/04/02 03:00:06;;;;;;;15.05;5.32;;;15.20;80.30;;;;;;4980730;28;20037;-68
2024/04/02 03:02:36;;;;;;;14.52;5.45;;;15.40;80.50;;;;;;5026533;28;20427;-69
2024/04/02 03:05:05;;;;;;;13.88;6.93;;;15.40;80.50;;;;;;4980770;28;20042;-70
2024/04/02 03:07:32;;;;;;;12.55;6.05;;;15.20;80.50;;;;;;4971045;28;20038;-69
2024/04/02 03:09:58;;;;;;;12.50;5.05;;;15.10;81.40;;;;;;4956009;28;20038;-69
2024/04/02 03:12:24;;;;;;;13.45;5.47;;;15.30;80.70;;;;;;4977444;28;20041;-69
2024/04/02 03:14:50;;;;;;;14.27;5.15;;;15.40;80.00;;;;;;4979440;28;20041;-68
2024/04/02 03:17:16;;;;;;;13.40;5.53;;;15.60;79.80;;;;;;4971955;28;20415;-69
2024/04/02 03:19:43;;;;;;;12.73;5.60;;;15.70;79.60;;;;;;4983393;28;20423;-68
2024/04/02 03:22:09;;;;;;;14.48;5.70;;;15.10;81.00;;;;;;4986891;28;20049;-66
2024/04/02 03:24:35;;;;;;;14.73;6.20;;;15.20;81.30;;;;;;4977118;28;20034;-68
2024/04/02 03:27:02;;;;;;;16.30;5.18;;;15.70;79.00;;;;;;4971593;28;20084;-67
2024/04/02 03:29:28;;;;;;;14.07;5.20;;;15.60;79.90;;;;;;4971656;28;20084;-67
2024/04/02 03:31:55;;;;;;;11.57;4.90;;;15.60;80.00;;;;;;4973870;28;20034;-68
2024/04/02 03:34:23;;;;;;;16.85;5.93;;;15.70;80.30;;;;;;4981365;28;20034;-69
2024/04/02 03:36:49;;;;;;;12.73;5.32;;;15.50;81.40;;;;;;4971819;28;20477;-68
2024/04/02 03:39:16;;;;;;;13.52;5.03;;;15.40;81.20;;;;;;4984434;28;20045;-68
2024/04/02 03:41:42;;;;;;;15.85;5.80;;;15.40;81.50;;;;;;4977375;28;20050;-69
2024/04/02 03:44:08;;;;;;;14.65;5.63;;;15.40;81.30;;;;;;4974991;28;20600;-68
2024/04/02 03:46:34;;;;;;;12.60;6.22;;;15.30;81.60;;;;;;4974331;28;20046;-68
2024/04/02 03:49:01;;;;;;;13.00;5.85;;;15.00;82.70;;;;;;4974877;28;20030;-69
2024/04/02 03:51:27;;;;;;;12.50;5.13;;;14.90;82.90;;;;;;4974469;28;20380;-69
2024/04/02 03:53:53;;;;;;;14.73;5.50;;;15.10;83.50;;;;;;4974456;28;20046;-71
2024/04/02 03:56:19;;;;;;;15.85;5.95;;;15.30;82.20;;;;;;4975065;28;20430;-69
2024/04/02 03:58:45;;;;;;;20.23;6.20;;;15.40;81.90;;;;;;4974410;28;20042;-68
2024/04/02 04:01:12;;;;;;;26.65;5.78;;;15.30;82.40;;;;;;4975192;28;20461;-66
2024/04/02 04:03:38;;;;;;;11.95;5.43;;;15.20;82.90;;;;;;4974590;28;20038;-69
2024/04/02 04:06:05;;;;;;;14.75;6.22;;;15.30;82.50;;;;;;4974473;28;20058;-70
2024/04/02 04:08:32;;;;;;;14.73;6.53;;;15.40;82.80;;;;;;4974257;28;20039;-70
2024/04/02 04:10:59;;;;;;;16.27;6.15;;;15.40;82.70;;;;;;4980008;28;20052;-70
2024/04/02 04:13:26;;;;;;;17.13;5.95;;;15.30;82.60;;;;;;4973944;28;20046;-67
2024/04/02 04:16:01;;;;;;;15.43;5.80;;;15.40;82.70;;;;;;4975406;28;20042;-70
2024/04/02 04:18:28;;;;;;;12.52;5.93;;;15.30;82.50;;;;;;4975612;28;20064;-69
2024/04/02 04:20:58;;;;;;;16.85;5.40;;;15.10;83.30;;;;;;4982641;28;20044;-67
2024/04/02 04:23:25;;;;;;;20.65;5.82;;;15.20;83.20;;;;;;4974349;28;20139;-70
2024/04/02 04:26:01;;;;;;;15.52;5.45;;;15.30;83.20;;;;;;4974033;28;20038;-69
2024/04/02 04:28:28;;;;;;;11.10;5.60;;;15.20;83.30;;;;;;4963234;28;20034;-70
2024/04/02 04:31:00;;;;;;;13.15;5.78;;;15.10;83.90;;;;;;4976311;28;20038;-69
2024/04/02 04:33:27;;;;;;;15.80;5.43;;;14.90;84.50;;;;;;4977990;28;20470;-69
2024/04/02 04:35:54;;;;;;;19.02;7.20;;;15.30;83.80;;;;;;4973425;28;20062;-68
2024/04/02 04:38:22;;;;;;;14.90;6.03;;;15.50;82.90;;;;;;4980042;28;20119;-70
2024/04/02 04:40:49;;;;;;;14.88;6.15;;;15.50;82.60;;;;;;4977805;28;20039;-69
2024/04/02 04:43:17;;;;;;;19.08;6.38;;;15.40;83.40;;;;;;4973679;28;20077;-69
2024/04/02 04:45:53;;;;;;;15.05;6.40;;;15.50;82.60;;;;;;4960810;28;20035;-69
2024/04/02 04:48:20;;;;;;;20.67;6.82;;;15.40;82.90;;;;;;4975905;28;20114;-72
2024/04/02 04:51:02;;;;;;;20.63;6.22;;;15.40;82.80;;;;;;4976828;28;20463;-70
2024/04/02 04:53:29;;;;;;;13.82;6.20;;;15.20;83.50;;;;;;4973600;28;20049;-68
2024/04/02 04:56:06;;;;;;;15.57;6.35;;;15.00;83.50;;;;;;4973512;28;20038;-69
2024/04/02 04:58:35;;;;;;;20.65;6.78;;;15.20;83.00;;;;;;4984570;28;20047;-69
2024/04/02 05:01:03;;;;;;;15.65;6.35;;;15.30;83.20;;;;;;4981912;28;20038;-69
2024/04/02 05:03:30;;;;;;;14.75;5.55;;;15.30;83.00;;;;;;4973563;28;20034;-70
2024/04/02 05:06:09;;;;;;;19.50;5.97;;;15.50;82.20;;;;;;4976635;28;20045;-69
2024/04/02 05:08:36;;;;;;;12.73;5.45;;;15.60;81.70;;;;;;4989781;28;20034;-70
2024/04/02 05:11:05;;;;;;;17.83;6.07;;;15.50;82.30;;;;;;4980533;28;20171;-68
2024/04/02 05:13:32;;;;;;;13.55;6.38;;;15.80;79.70;;;;;;4977114;28;20033;-70
2024/04/02 05:15:59;;;;;;;80.68;41.83;;;16.00;81.40;;;;;;4986364;28;20040;-68
2024/04/02 05:18:25;;;;;;;142.73;79.45;;;16.20;81.60;;;;;;4972804;28;20074;-69
2024/04/02 05:20:52;;;;;;;21.52;12.40;;;16.30;81.10;;;;;;4990145;28;20357;-68
2024/04/02 05:23:18;;;;;;;21.15;7.70;;;16.40;79.10;;;;;;4976797;28;20435;-68
2024/04/02 05:25:45;;;;;;;16.33;6.65;;;16.60;78.30;;;;;;4974501;28;20042;-67
2024/04/02 05:28:11;;;;;;;77.50;39.45;;;16.70;77.20;;;;;;4980499;28;20030;-68
2024/04/02 05:30:38;;;;;;;50.67;22.08;;;16.90;76.50;;;;;;4983009;28;20434;-67
2024/04/02 05:33:05;;;;;;;159.80;85.90;;;17.20;75.00;;;;;;4977028;28;20049;-68
2024/04/02 05:35:32;;;;;;;25.05;10.43;;;17.50;72.60;;;;;;4972596;28;20415;-68
2024/04/02 05:37:59;;;;;;;19.02;5.43;;;17.70;71.00;;;;;;4984530;28;20049;-69
2024/04/02 05:40:25;;;;;;;11.18;3.78;;;17.50;70.80;;;;;;4985423;28;20029;-67
2024/04/02 05:42:51;;;;;;;11.50;4.93;;;17.50;70.80;;;;;;4977641;28;20034;-68
2024/04/02 05:45:18;;;;;;;21.65;6.57;;;17.30;72.10;;;;;;4985061;28;20038;-69
2024/04/02 05:47:45;;;;;;;20.27;6.38;;;17.20;75.00;;;;;;4972606;28;20027;-69
2024/04/02 05:50:11;;;;;;;15.90;4.35;;;17.20;73.50;;;;;;4981051;28;20034;-69
2024/04/02 05:52:38;;;;;;;16.58;4.40;;;17.50;69.60;;;;;;4976833;28;20389;-67
2024/04/02 05:55:04;;;;;;;13.27;3.95;;;18.00;65.40;;;;;;4972504;28;20035;-68
2024/04/02 05:57:31;;;;;;;13.10;3.00;;;18.20;64.00;;;;;;4974036;28;20117;-68
2024/04/02 05:59:57;;;;;;;11.60;3.33;;;18.60;62.40;;;;;;4979918;28;20057;-69
2024/04/02 06:02:23;;;;;;;14.05;3.53;;;18.70;62.30;;;;;;4969617;28;20038;-70
2024/04/02 06:04:49;;;;;;;24.08;7.38;;;18.80;61.00;;;;;;4969847;28;20099;-71
2024/04/02 06:07:16;;;;;;;17.17;5.28;;;19.10;59.20;;;;;;4976436;28;20092;-72
2024/04/02 06:09:42;;;;;;;8.27;3.17;;;19.40;58.40;;;;;;4981341;28;20034;-69
2024/04/02 06:12:09;;;;;;;11.20;2.90;;;19.20;59.10;;;;;;4970361;28;20058;-69
2024/04/02 06:14:35;;;;;;;11.00;3.30;;;19.20;57.50;;;;;;4979981;28;20030;-71
2024/04/02 06:17:02;;;;;;;5.40;2.00;;;19.30;55.80;;;;;;4975402;28;20034;-69
2024/04/02 06:19:32;;;;;;;9.65;2.10;;;19.50;53.50;;;;;;4981980;28;20385;-69
2024/04/02 06:21:58;;;;;;;6.72;2.17;;;19.60;52.90;;;;;;4979689;28;20050;-70
2024/04/02 06:24:24;;;;;;;6.25;2.22;;;19.70;52.40;;;;;;4971938;28;20034;-69
2024/04/02 06:26:51;;;;;;;4.20;2.17;;;19.70;50.80;;;;;;4989955;28;20034;-69
2024/04/02 06:29:18;;;;;;;5.18;2.10;;;19.80;52.00;;;;;;4971050;28;20241;-70
2024/04/02 06:31:45;;;;;;;10.90;2.50;;;19.80;50.10;;;;;;4963512;28;20034;-69
2024/04/02 06:34:12;;;;;;;10.05;2.60;;;19.80;49.90;;;;;;4981283;28;20462;-69
2024/04/02 06:36:38;;;;;;;4.13;1.90;;;19.80;49.90;;;;;;4970254;28;20038;-69
2024/04/02 06:39:05;;;;;;;5.43;1.92;;;19.80;50.20;;;;;;4973599;28;20079;-67
2024/04/02 06:41:31;;;;;;;3.83;2.10;;;19.90;50.00;;;;;;4978568;28;20428;-70
2024/04/02 06:44:00;;;;;;;3.08;1.90;;;19.90;49.60;;;;;;4966469;28;20042;-71
2024/04/02 06:46:26;;;;;;;7.00;2.20;;;20.00;49.70;;;;;;4978990;28;20038;-67
2024/04/02 06:48:52;;;;;;;5.50;2.10;;;19.90;49.00;;;;;;4971856;28;20030;-68
2024/04/02 06:51:19;;;;;;;7.85;2.75;;;19.90;49.00;;;;;;4972205;28;20030;-68
2024/04/02 06:53:45;;;;;;;3.75;1.88;;;19.90;48.40;;;;;;4971224;28;20042;-69
2024/04/02 06:56:11;;;;;;;13.57;2.33;;;19.70;48.50;;;;;;4977968;28;20382;-70
2024/04/02 06:58:37;;;;;;;4.63;2.03;;;19.70;49.30;;;;;;4980525;28;20071;-70
2024/04/02 07:01:04;;;;;;;5.38;1.92;;;19.70;48.20;;;;;;4972035;28;20076;-69
2024/04/02 07:03:30;;;;;;;6.95;2.17;;;19.70;48.60;;;;;;4971387;28;20407;-69
2024/04/02 07:06:15;;;;;;;2.95;1.63;;;19.70;47.80;;;;;;4989132;28;20057;-68
2024/04/02 07:08:46;;;;;;;5.32;1.92;;;19.70;48.10;;;;;;4972261;28;20049;-69
2024/04/02 07:11:12;;;;;;;;;;;19.60;48.00;;;;;;4978166;28;20042;-69
2024/04/02 07:13:39;;;;;;;6.35;2.00;;;19.70;48.50;;;;;;4971485;28;19918;-69
2024/04/02 07:16:05;;;;;;;2.30;1.52;;;19.70;48.40;;;;;;4960489;28;20041;-68
2024/04/02 07:18:35;;;;;;;3.72;1.52;;;19.60;48.50;;;;;;4981628;28;20038;-68
2024/04/02 07:21:05;;;;;;;8.30;2.22;;;19.60;48.50;;;;;;4985741;28;20046;-69
2024/04/02 07:23:32;;;;;;;9.38;2.50;;;19.60;48.60;;;;;;4971041;28;20381;-69
2024/04/02 07:25:59;;;;;;;6.10;1.90;;;19.50;48.60;;;;;;4971196;28;20035;-69
2024/04/02 07:28:26;;;;;;;5.72;2.20;;;19.40;48.90;;;;;;4979462;28;20422;-70
2024/04/02 07:30:53;;;;;;;4.35;2.10;;;19.40;49.20;;;;;;4975131;28;20064;-69
2024/04/02 07:33:20;;;;;;;6.88;1.98;;;19.50;49.50;;;;;;4969275;28;20091;-69
2024/04/02 07:35:46;;;;;;;4.60;2.40;;;19.50;49.30;;;;;;4971670;28;20077;-69
2024/04/02 07:38:16;;;;;;;4.93;2.00;;;19.70;49.30;;;;;;4975884;28;20037;-68
2024/04/02 07:40:43;;;;;;;7.72;2.00;;;19.70;49.50;;;;;;4964279;28;20072;-68
2024/04/02 07:43:09;;;;;;;4.65;1.98;;;19.80;49.00;;;;;;4959093;28;20046;-70
2024/04/02 07:45:38;;;;;;;6.60;1.98;;;20.00;48.80;;;;;;4971503;28;20419;-70
2024/04/02 07:48:05;;;;;;;10.25;2.38;;;20.00;49.60;;;;;;4972453;28;20065;-69
2024/04/02 07:50:33;;;;;;;5.10;1.98;;;20.00;49.10;;;;;;4980571;28;20038;-69
2024/04/02 07:52:59;;;;;;;5.22;2.35;;;20.00;49.10;;;;;;4970919;28;20065;-67
2024/04/02 07:55:25;;;;;;;8.63;2.03;;;20.00;48.80;;;;;;4971169;28;20075;-70
2024/04/02 07:57:52;;;;;;;5.30;1.95;;;20.10;48.40;;;;;;4979983;28;20030;-69
2024/04/02 08:00:19;;;;;;;6.03;1.85;;;20.10;47.70;;;;;;4978389;28;20516;-70
2024/04/02 08:02:49;;;;;;;7.30;1.77;;;20.20;47.00;;;;;;5043016;28;20030;-70
2024/04/02 08:05:15;;;;;;;6.05;1.98;;;20.20;48.50;;;;;;4978089;28;20087;-69
2024/04/02 08:07:44;;;;;;;4.30;2.05;;;20.50;48.30;;;;;;4984049;28;20041;-73
2024/04/02 08:10:11;;;;;;;5.50;1.70;;;20.50;48.40;;;;;;4981285;28;20027;-70
2024/04/02 08:12:38;;;;;;;6.88;1.88;;;20.50;47.10;;;;;;4980752;28;20465;-70
2024/04/02 08:15:05;;;;;;;6.43;2.20;;;20.50;47.10;;;;;;4972820;28;20046;-71
2024/04/02 08:17:31;;;;;;;8.30;2.88;;;20.60;48.20;;;;;;4972669;28;20117;-71
2024/04/02 08:19:58;;;;;;;5.18;1.92;;;20.80;47.80;;;;;;4975729;28;20042;-72
2024/04/02 08:22:24;;;;;;;4.50;1.90;;;20.90;47.50;;;;;;4994244;28;20033;-71
2024/04/02 08:24:53;;;;;;;5.78;2.30;;;21.00;47.50;;;;;;4975651;28;20555;-69
2024/04/02 08:27:20;;;;;;;4.43;2.22;;;21.10;47.10;;;;;;4969832;28;20038;-72
2024/04/02 08:29:48;;;;;;;6.35;2.08;;;21.00;45.70;;;;;;4966744;28;20100;-70
2024/04/02 08:32:16;;;;;;;7.32;2.08;;;21.00;45.60;;;;;;4978462;28;20038;-70
2024/04/02 08:34:43;;;;;;;4.03;1.63;;;21.00;45.90;;;;;;4974068;28;20045;-70
2024/04/02 08:37:09;;;;;;;4.82;2.00;;;20.70;45.10;;;;;;4984279;28;20034;-71
2024/04/02 08:39:37;;;;;;;4.03;1.75;;;20.90;45.30;;;;;;4982085;28;20038;-68
2024/04/02 08:42:04;;;;;;;5.95;2.10;;;21.10;44.80;;;;;;4983441;28;20038;-70
2024/04/02 08:44:32;;;;;;;5.50;1.77;;;21.30;44.50;;;;;;4980741;28;20042;-71
2024/04/02 08:47:01;;;;;;;6.15;1.85;;;21.10;44.30;;;;;;4974099;28;20377;-69
2024/04/02 08:49:28;;;;;;;5.03;1.83;;;21.20;44.50;;;;;;4978567;28;20099;-70
2024/04/02 08:51:54;;;;;;;5.93;1.75;;;21.20;43.70;;;;;;4973625;28;20045;-68
2024/04/02 08:54:21;;;;;;;6.60;1.73;;;21.30;43.60;;;;;;4985969;28;20041;-68
2024/04/02 08:56:48;;;;;;;4.53;1.50;;;21.30;43.40;;;;;;4992101;28;20049;-69
2024/04/02 08:59:14;;;;;;;6.60;2.00;;;21.40;43.40;;;;;;4977888;28;20068;-68
2024/04/02 09:01:45;;;;;;;5.63;1.70;;;21.40;42.90;;;;;;4982654;28;20030;-68
2024/04/02 09:04:12;;;;;;;;;;;21.40;43.40;;;;;;4976906;28;20080;-67
2024/04/02 09:06:38;;;;;;;4.28;1.70;;;21.50;43.60;;;;;;4973587;28;19917;-69
2024/04/02 09:09:07;;;;;;;4.63;1.67;;;22.10;44.20;;;;;;4986106;28;20408;-69
2024/04/02 09:11:53;;;;;;;10.88;2.58;;;22.00;42.10;;;;;;4977062;28;20080;-71
2024/04/02 09:14:20;;;;;;;6.57;1.77;;;21.90;42.80;;;;;;4984957;28;20083;-69
2024/04/02 09:16:52;;;;;;;4.30;1.50;;;22.10;43.60;;;;;;4973892;28;20049;-71
2024/04/02 09:19:19;;;;;;;5.22;1.83;;;21.70;41.80;;;;;;4974628;28;20069;-70
2024/04/02 09:21:45;;;;;;;4.57;1.50;;;22.00;41.90;;;;;;5047774;28;20041;-69
2024/04/02 09:24:12;;;;;;;3.83;1.50;;;21.70;40.90;;;;;;4979270;28;20039;-71
2024/04/02 09:26:41;;;;;;;6.38;1.95;;;21.90;41.10;;;;;;4957429;28;20083;-67
2024/04/02 09:29:08;;;;;;;2.53;1.42;;;22.00;40.90;;;;;;4967679;28;20045;-70
2024/04/02 09:31:34;;;;;;;3.03;1.77;;;22.00;40.50;;;;;;4978311;28;20034;-70
2024/04/02 09:34:08;;;;;;;5.68;2.20;;;22.20;39.40;;;;;;4981394;28;20415;-70
2024/04/02 09:36:43;;;;;;;3.58;1.48;;;22.10;38.90;;;;;;4974915;28;20038;-71
2024/04/02 09:39:12;;;;;;;7.28;1.63;;;22.30;38.80;;;;;;4973387;28;20431;-71
2024/04/02 09:41:43;;;;;;;4.72;2.20;;;22.50;38.00;;;;;;4975489;28;20027;-70
2024/04/02 09:44:12;;;;;;;5.05;1.40;;;22.80;39.00;;;;;;4973997;28;20393;-69
2024/04/02 09:46:40;;;;;;;8.73;1.90;;;22.60;38.00;;;;;;4981741;28;20414;-71
2024/04/02 09:49:09;;;;;;;7.38;1.65;;;22.60;39.10;;;;;;4960433;28;20279;-72
2024/04/02 09:51:40;;;;;;;3.30;1.30;;;22.60;38.20;;;;;;4981945;28;20033;-71
2024/04/02 09:54:07;;;;;;;8.27;1.60;;;22.30;37.90;;;;;;4981534;28;20385;-73
2024/04/02 09:56:34;;;;;;;6.55;1.75;;;22.40;37.60;;;;;;4955886;28;20037;-71
2024/04/02 09:59:02;;;;;;;5.80;1.67;;;22.50;38.10;;;;;;4971574;28;20107;-72
2024/04/02 10:01:32;;;;;;;4.28;1.50;;;22.60;38.40;;;;;;5039662;28;20087;-72
2024/04/02 10:04:03;;;;;;;7.15;1.48;;;22.50;38.00;;;;;;4971440;28;20095;-71
2024/04/02 10:06:33;;;;;;;4.00;1.70;;;22.60;38.50;;;;;;4972906;28;20034;-71
2024/04/02 10:09:03;;;;;;;2.22;1.17;;;22.80;37.70;;;;;;4971710;28;20038;-72
2024/04/02 10:11:37;;;;;;;3.72;1.30;;;22.80;37.70;;;;;;4971414;28;20047;-71
2024/04/02 10:14:12;;;;;;;4.38;1.30;;;22.90;37.40;;;;;;4970448;28;20087;-72
2024/04/02 10:16:44;;;;;;;3.97;1.30;;;23.00;37.60;;;;;;4966984;28;20045;-70
2024/04/02 10:19:23;;;;;;;2.92;1.38;;;23.30;37.60;;;;;;4971042;28;20038;-71
2024/04/02 10:21:51;;;;;;;3.35;1.40;;;23.80;37.20;;;;;;4978716;28;20049;-70
2024/04/02 10:24:25;;;;;;;4.55;1.30;;;23.90;36.70;;;;;;4971236;28;20043;-70
2024/04/02 10:26:56;;;;;;;5.55;1.58;;;23.80;35.80;;;;;;4972101;28;20072;-71
2024/04/02 10:29:33;;;;;;;2.58;1.20;;;23.90;34.80;;;;;;4985201;28;20477;-69
2024/04/02 10:32:00;;;;;;;4.32;1.33;;;24.00;35.20;;;;;;4971816;28;20110;-70
2024/04/02 10:34:27;;;;;;;6.97;2.42;;;24.00;35.20;;;;;;4981809;28;20091;-71
2024/04/02 10:36:53;;;;;;;2.45;1.00;;;23.90;36.00;;;;;;4975137;28;20039;-70
2024/04/02 10:39:38;;;;;;;4.10;1.50;;;23.30;34.10;;;;;;4989799;28;20350;-71
2024/04/02 10:42:04;;;;;;;2.45;1.05;;;23.20;35.50;;;;;;4971932;28;20035;-69
2024/04/02 10:44:30;;;;;;;2.63;1.30;;;23.20;34.70;;;;;;4972331;28;20034;-71
2024/04/02 10:46:56;;;;;;;4.43;1.48;;;23.00;34.20;;;;;;4971467;28;20378;-72
2024/04/02 10:49:23;;;;;;;3.17;1.30;;;22.90;33.90;;;;;;4972317;28;20030;-72
2024/04/02 10:51:50;;;;;;;3.13;1.30;;;23.20;33.70;;;;;;4971999;28;20072;-71
2024/04/02 10:54:16;;;;;;;5.35;1.52;;;22.90;33.10;;;;;;4971647;28;20088;-70
2024/04/02 10:56:42;;;;;;;4.20;1.30;;;23.00;33.70;;;;;;4972250;28;20397;-71
2024/04/02 10:59:09;;;;;;;3.03;1.30;;;23.20;34.30;;;;;;4971904;28;20038;-71
2024/04/02 11:01:36;;;;;;;2.97;1.45;;;22.90;34.20;;;;;;4980043;28;20030;-68
2024/04/02 11:04:03;;;;;;;6.38;1.85;;;23.00;35.30;;;;;;4975659;28;20038;-70
2024/04/02 11:06:31;;;;;;;2.70;1.30;;;22.90;35.10;;;;;;4980463;28;20044;-70
2024/04/02 11:08:57;;;;;;;7.10;2.25;;;22.70;35.00;;;;;;4971759;28;20492;-72
2024/04/02 11:11:25;;;;;;;5.97;2.38;;;22.70;36.20;;;;;;4971920;28;20038;-69
2024/04/02 11:13:51;;;;;;;3.58;1.80;;;23.00;36.00;;;;;;4971430;28;20139;-71
2024/04/02 11:16:18;;;;;;;3.28;1.20;;;22.90;35.50;;;;;;4971770;28;20034;-71
2024/04/02 11:19:03;;;;;;;2.38;1.10;;;23.10;34.50;;;;;;4980347;28;20037;-71
2024/04/02 11:21:36;;;;;;;3.40;1.20;;;22.90;33.10;;;;;;4991115;28;20038;-70
2024/04/02 11:26:48;;;;;;;2.22;1.30;;;23.30;33.50;;;;;;4978568;28;20099;-70
2024/04/02 11:29:20;;;;;;;5.50;1.10;;;23.40;33.60;;;;;;4972922;28;20037;-71
2024/04/02 11:31:48;;;;;;;4.97;1.40;;;23.70;33.00;;;;;;4970822;28;20062;-71
2024/04/02 11:34:14;;;;;;;2.55;1.15;;;23.50;31.60;;;;;;4971268;28;20060;-71
2024/04/02 11:36:41;;;;;;;2.53;1.00;;;23.40;32.80;;;;;;4968494;28;20050;-71
2024/04/02 11:39:07;;;;;;;3.00;1.20;;;23.70;32.60;;;;;;4971386;28;20495;-71
2024/04/02 11:41:34;;;;;;;3.10;1.15;;;23.80;32.70;;;;;;4971263;28;20045;-71
2024/04/02 11:44:01;;;;;;;3.65;1.45;;;24.40;32.80;;;;;;4975824;28;20043;-72
2024/04/02 11:46:27;;;;;;;3.92;1.50;;;23.50;31.40;;;;;;4968227;28;20026;-72
2024/04/02 11:48:54;;;;;;;1.80;0.90;;;23.80;33.80;;;;;;4965612;28;20426;-72
2024/04/02 11:51:22;;;;;;;2.22;1.33;;;23.80;31.70;;;;;;4973779;28;20034;-70
2024/04/02 11:53:48;;;;;;;2.85;1.08;;;23.80;32.20;;;;;;4954784;28;20046;-72
2024/04/02 11:56:15;;;;;;;5.45;1.20;;;24.10;32.70;;;;;;4978231;28;20473;-72
2024/04/02 12:01:27;;;;;;;2.30;0.90;;;24.40;30.80;;;;;;4987182;28;20038;-70
2024/04/02 12:03:53;;;;;;;3.33;1.30;;;25.80;31.70;;;;;;4985537;28;20034;-69
2024/04/02 12:06:21;;;;;;;4.85;1.38;;;29.00;31.00;;;;;;4976902;28;20046;-70
2024/04/02 12:08:47;;;;;;;1.90;1.00;;;29.50;31.00;;;;;;4964573;28;20058;-72
2024/04/02 12:11:13;;;;;;;4.10;1.48;;;32.00;30.70;;;;;;4967940;28;20464;-69
2024/04/02 12:13:39;;;;;;;3.05;1.10;;;31.00;30.10;;;;;;4978787;28;20041;-70
2024/04/02 12:16:06;;;;;;;2.65;1.10;;;28.20;30.90;;;;;;4978035;28;20034;-70
2024/04/02 12:18:32;;;;;;;3.25;1.42;;;30.60;30.40;;;;;;4969655;28;20026;-68
2024/04/02 12:20:59;;;;;;;3.53;0.90;;;28.30;29.90;;;;;;4990816;28;20121;-69
2024/04/02 12:23:25;;;;;;;1.92;0.98;;;29.90;30.00;;;;;;4976501;28;20110;-68
2024/04/02 12:25:51;;;;;;;4.85;1.00;;;28.10;29.70;;;;;;4969727;28;20050;-69
2024/04/02 12:28:18;;;;;;;3.90;0.90;;;27.50;29.70;;;;;;4970945;28;20034;-69
2024/04/02 12:30:44;;;;;;;0.60;0.50;;;28.50;29.40;;;;;;4979088;28;20034;-69
2024/04/02 12:33:10;;;;;;;5.13;0.90;;;26.70;29.20;;;;;;4971772;28;20030;-69
2024/04/02 12:35:36;;;;;;;2.40;1.00;;;29.00;30.00;;;;;;4971568;28;20030;-70
2024/04/02 12:38:03;;;;;;;3.75;0.80;;;29.50;30.80;;;;;;5012646;28;20474;-70
2024/04/02 12:40:29;;;;;;;2.65;0.65;;;28.80;30.10;;;;;;4975173;28;20030;-72
2024/04/02 12:42:55;;;;;;;1.92;0.73;;;28.80;29.40;;;;;;4972889;28;20039;-71
2024/04/02 12:45:21;;;;;;;2.83;0.50;;;28.30;29.30;;;;;;4977572;28;20381;-71
2024/04/02 12:47:47;;;;;;;3.38;1.20;;;33.00;29.20;;;;;;4974318;28;20064;-71
2024/04/02 12:50:14;;;;;;;4.32;1.00;;;29.30;29.00;;;;;;4985356;28;20041;-71